First I — 3ESJ5 — position and weather

sailwx.info

Track history (hours):
 
Tides and Currents Weather Stations Pressure Air Temp Water Temp Dewpoint Dewpoint Depression Visibility Wind Speed Wind Dir Waves Ship Positions

First I

Last reported at 2016-Jan-30 09:13 UTC. Time now 2016-Feb-10 04:39 UTC.
Position S 34°49' E 021°56'.
Warning: this ship's position is 10 days out of date.

Length 190 m; draft 8.2 m.

Type: Cargo ship. MMSI: 370317000.

Date/timePositionNaut miles runAvg speedWind from/ knotsBaromVisibWave heightAir tempDewpointWater temp
2016-Jan-30 09:13S 34°49' E 021°56'33212.0
2016-Jan-29 05:31S 33°13' E 028°20'21113.2
2016-Jan-28 13:33S 30°29' E 030°55'1111.2
2016-Jan-28 12:33S 30°19' E 031°01'1111.2
2016-Jan-28 11:33S 30°08' E 031°06'1211.8
2016-Jan-28 10:33S 29°57' E 031°09'7 6.6
2016-Jan-28 09:33S 29°52' E 031°03'1 1.2
2016-Jan-28 08:31S 29°52' E 031°02'0 0.0
2016-Jan-28 07:31S 29°52' E 031°02'0 0.0
2016-Jan-28 06:31S 29°52' E 031°02'0 0.0
2016-Jan-28 05:31S 29°52' E 031°02'0 0.0
2016-Jan-28 04:31S 29°52' E 031°02'0 0.0
2016-Jan-28 03:31S 29°52' E 031°02'0 0.0
2016-Jan-28 02:25S 29°52' E 031°02'0 0.0
2016-Jan-28 01:31S 29°52' E 031°02'0 0.0
2016-Jan-28 00:31S 29°52' E 031°02'0 0.0
2016-Jan-27 23:31S 29°52' E 031°02'0 0.0
2016-Jan-27 22:34S 29°52' E 031°02'3 3.0
2016-Jan-27 21:33S 29°50' E 031°05'3 2.6
2016-Jan-27 20:33S 29°49' E 031°07'1010.3
2016-Jan-27 19:33S 29°46' E 031°19'1211.8
2016-Jan-27 18:33S 29°40' E 031°30'1212.2
2016-Jan-27 17:33S 29°33' E 031°42'1212.2
2016-Jan-27 16:33S 29°26' E 031°54'1212.0
2016-Jan-27 15:31S 29°19' E 032°05'1313.4
2016-Jan-27 14:32S 29°10' E 032°17'1414.2
2016-Jan-27 13:32S 28°58' E 032°26'1414.0
2016-Jan-27 12:33S 28°47' E 032°34'1513.7
2016-Jan-27 11:26S 28°34' E 032°44'  
Track history (hours):
 
Tides and Currents Weather Stations Pressure Air Temp Water Temp Dewpoint Dewpoint Depression Visibility Wind Speed Wind Dir Waves Ship Positions

First I

Last reported at 2016-Jan-30 09:13 UTC. Time now 2016-Feb-10 04:39 UTC.
Position S 34°49' E 021°56'.
Warning: this ship's position is 10 days out of date.

Length 190 m; draft 8.2 m.

Type: Cargo ship. MMSI: 370317000.

Date/timePositionNaut miles runAvg speedWind from/ knotsBaromVisibWave heightAir tempDewpointWater temp
2016-Jan-30 09:13S 34°49' E 021°56'33212.0
2016-Jan-29 05:31S 33°13' E 028°20'21113.2
2016-Jan-28 13:33S 30°29' E 030°55'1111.2
2016-Jan-28 12:33S 30°19' E 031°01'1111.2
2016-Jan-28 11:33S 30°08' E 031°06'1211.8
2016-Jan-28 10:33S 29°57' E 031°09'7 6.6
2016-Jan-28 09:33S 29°52' E 031°03'1 1.2
2016-Jan-28 08:31S 29°52' E 031°02'0 0.0
2016-Jan-28 07:31S 29°52' E 031°02'0 0.0
2016-Jan-28 06:31S 29°52' E 031°02'0 0.0
2016-Jan-28 05:31S 29°52' E 031°02'0 0.0
2016-Jan-28 04:31S 29°52' E 031°02'0 0.0
2016-Jan-28 03:31S 29°52' E 031°02'0 0.0
2016-Jan-28 02:25S 29°52' E 031°02'0 0.0
2016-Jan-28 01:31S 29°52' E 031°02'0 0.0
2016-Jan-28 00:31S 29°52' E 031°02'0 0.0
2016-Jan-27 23:31S 29°52' E 031°02'0 0.0
2016-Jan-27 22:34S 29°52' E 031°02'3 3.0
2016-Jan-27 21:33S 29°50' E 031°05'3 2.6
2016-Jan-27 20:33S 29°49' E 031°07'1010.3
2016-Jan-27 19:33S 29°46' E 031°19'1211.8
2016-Jan-27 18:33S 29°40' E 031°30'1212.2
2016-Jan-27 17:33S 29°33' E 031°42'1212.2
2016-Jan-27 16:33S 29°26' E 031°54'1212.0
2016-Jan-27 15:31S 29°19' E 032°05'1313.4
2016-Jan-27 14:32S 29°10' E 032°17'1414.2
2016-Jan-27 13:32S 28°58' E 032°26'1414.0
2016-Jan-27 12:33S 28°47' E 032°34'1513.7
2016-Jan-27 11:26S 28°34' E 032°44'  

Dump ship's entire track history